sensor_id;sensor_type;location;lat;lon;timestamp;P1;durP1;ratioP1;P2;durP2;ratioP2
65533;SDS011;53640;55.838;37.184;2022-10-17T00:01:42;6.30;;;2.53;;
65533;SDS011;53640;55.838;37.184;2022-10-17T00:04:09;9.00;;;3.30;;
65533;SDS011;53640;55.838;37.184;2022-10-17T00:06:35;5.45;;;3.20;;
65533;SDS011;53640;55.838;37.184;2022-10-17T00:09:05;7.55;;;3.13;;
65533;SDS011;53640;55.838;37.184;2022-10-17T00:11:31;5.63;;;3.40;;
65533;SDS011;53640;55.838;37.184;2022-10-17T00:13:58;6.38;;;3.00;;
65533;SDS011;53640;55.838;37.184;2022-10-17T00:16:29;5.93;;;3.00;;
65533;SDS011;53640;55.838;37.184;2022-10-17T00:19:03;5.18;;;2.97;;
65533;SDS011;53640;55.838;37.184;2022-10-17T00:21:31;7.68;;;3.13;;
65533;SDS011;53640;55.838;37.184;2022-10-17T00:23:58;6.55;;;3.17;;
65533;SDS011;53640;55.838;37.184;2022-10-17T00:26:26;8.00;;;3.17;;
65533;SDS011;53640;55.838;37.184;2022-10-17T00:28:56;6.18;;;2.47;;
65533;SDS011;53640;55.838;37.184;2022-10-17T00:31:39;4.75;;;3.13;;
65533;SDS011;53640;55.838;37.184;2022-10-17T00:34:20;6.20;;;2.63;;
65533;SDS011;53640;55.838;37.184;2022-10-17T00:36:46;5.25;;;2.17;;
65533;SDS011;53640;55.838;37.184;2022-10-17T00:39:20;2.97;;;2.50;;
65533;SDS011;53640;55.838;37.184;2022-10-17T00:41:49;5.55;;;2.55;;
65533;SDS011;53640;55.838;37.184;2022-10-17T00:46:55;4.13;;;2.58;;
65533;SDS011;53640;55.838;37.184;2022-10-17T00:49:22;5.13;;;2.80;;
65533;SDS011;53640;55.838;37.184;2022-10-17T00:52:26;3.53;;;2.50;;
65533;SDS011;53640;55.838;37.184;2022-10-17T00:54:58;3.80;;;2.65;;
65533;SDS011;53640;55.838;37.184;2022-10-17T00:57:34;3.92;;;2.60;;
65533;SDS011;53640;55.838;37.184;2022-10-17T01:00:02;5.05;;;2.70;;
65533;SDS011;53640;55.838;37.184;2022-10-17T01:02:31;4.05;;;3.10;;
65533;SDS011;53640;55.838;37.184;2022-10-17T01:04:58;5.85;;;2.88;;
65533;SDS011;53640;55.838;37.184;2022-10-17T01:07:24;4.18;;;3.13;;
65533;SDS011;53640;55.838;37.184;2022-10-17T01:09:53;6.00;;;2.88;;
65533;SDS011;53640;55.838;37.184;2022-10-17T01:12:32;9.30;;;3.00;;
65533;SDS011;53640;55.838;37.184;2022-10-17T01:18:24;5.53;;;2.72;;
65533;SDS011;53640;55.838;37.184;2022-10-17T01:29:28;4.40;;;2.80;;
65533;SDS011;53640;55.838;37.184;2022-10-17T01:32:27;5.82;;;3.17;;
65533;SDS011;53640;55.838;37.184;2022-10-17T01:35:09;6.07;;;2.42;;
65533;SDS011;53640;55.838;37.184;2022-10-17T01:38:05;6.30;;;2.85;;
65533;SDS011;53640;55.838;37.184;2022-10-17T01:40:34;3.63;;;2.70;;
65533;SDS011;53640;55.838;37.184;2022-10-17T01:43:10;5.82;;;2.78;;
65533;SDS011;53640;55.838;37.184;2022-10-17T01:45:51;4.55;;;3.05;;
65533;SDS011;53640;55.838;37.184;2022-10-17T01:48:22;6.72;;;3.47;;
65533;SDS011;53640;55.838;37.184;2022-10-17T01:50:57;5.32;;;2.85;;
65533;SDS011;53640;55.838;37.184;2022-10-17T01:53:39;5.22;;;3.15;;
65533;SDS011;53640;55.838;37.184;2022-10-17T01:56:30;6.18;;;3.25;;
65533;SDS011;53640;55.838;37.184;2022-10-17T01:59:06;4.03;;;2.80;;
65533;SDS011;53640;55.838;37.184;2022-10-17T02:01:40;4.07;;;3.10;;
65533;SDS011;53640;55.838;37.184;2022-10-17T02:04:08;6.10;;;2.80;;
65533;SDS011;53640;55.838;37.184;2022-10-17T02:06:36;4.47;;;2.40;;
65533;SDS011;53640;55.838;37.184;2022-10-17T02:09:18;5.05;;;2.90;;
65533;SDS011;53640;55.838;37.184;2022-10-17T02:17:31;12.77;;;3.30;;
65533;SDS011;53640;55.838;37.184;2022-10-17T02:20:30;8.13;;;3.22;;
65533;SDS011;53640;55.838;37.184;2022-10-17T02:28:20;2.95;;;2.65;;
65533;SDS011;53640;55.838;37.184;2022-10-17T02:30:59;5.82;;;2.70;;
65533;SDS011;53640;55.838;37.184;2022-10-17T02:36:46;5.78;;;3.13;;
65533;SDS011;53640;55.838;37.184;2022-10-17T02:39:21;3.53;;;2.83;;
65533;SDS011;53640;55.838;37.184;2022-10-17T02:41:50;6.60;;;3.20;;
65533;SDS011;53640;55.838;37.184;2022-10-17T02:44:20;3.85;;;2.92;;
65533;SDS011;53640;55.838;37.184;2022-10-17T02:46:51;5.90;;;3.05;;
65533;SDS011;53640;55.838;37.184;2022-10-17T02:49:27;3.78;;;2.63;;
65533;SDS011;53640;55.838;37.184;2022-10-17T02:52:12;4.40;;;3.10;;
65533;SDS011;53640;55.838;37.184;2022-10-17T02:55:23;7.15;;;3.25;;
65533;SDS011;53640;55.838;37.184;2022-10-17T02:57:56;4.47;;;3.33;;
65533;SDS011;53640;55.838;37.184;2022-10-17T03:00:37;5.32;;;3.55;;
65533;SDS011;53640;55.838;37.184;2022-10-17T03:03:22;4.93;;;2.70;;
65533;SDS011;53640;55.838;37.184;2022-10-17T03:05:50;4.45;;;2.92;;
65533;SDS011;53640;55.838;37.184;2022-10-17T03:08:18;4.90;;;3.13;;
65533;SDS011;53640;55.838;37.184;2022-10-17T03:13:36;5.00;;;3.13;;
65533;SDS011;53640;55.838;37.184;2022-10-17T03:16:03;6.18;;;2.97;;
65533;SDS011;53640;55.838;37.184;2022-10-17T03:18:56;5.13;;;3.10;;
65533;SDS011;53640;55.838;37.184;2022-10-17T03:21:26;7.13;;;3.60;;
65533;SDS011;53640;55.838;37.184;2022-10-17T03:26:45;4.15;;;2.63;;
65533;SDS011;53640;55.838;37.184;2022-10-17T03:29:17;10.02;;;3.45;;
65533;SDS011;53640;55.838;37.184;2022-10-17T03:31:44;7.50;;;3.15;;
65533;SDS011;53640;55.838;37.184;2022-10-17T03:34:10;8.73;;;3.35;;
65533;SDS011;53640;55.838;37.184;2022-10-17T03:36:37;7.07;;;2.78;;
65533;SDS011;53640;55.838;37.184;2022-10-17T03:39:04;6.78;;;3.25;;
65533;SDS011;53640;55.838;37.184;2022-10-17T03:41:30;4.57;;;3.40;;
65533;SDS011;53640;55.838;37.184;2022-10-17T03:43:57;6.60;;;3.50;;
65533;SDS011;53640;55.838;37.184;2022-10-17T03:46:24;6.63;;;3.58;;
65533;SDS011;53640;55.838;37.184;2022-10-17T03:48:51;10.15;;;3.75;;
65533;SDS011;53640;55.838;37.184;2022-10-17T03:51:19;6.47;;;3.42;;
65533;SDS011;53640;55.838;37.184;2022-10-17T03:53:51;6.45;;;3.42;;
65533;SDS011;53640;55.838;37.184;2022-10-17T03:56:20;6.88;;;3.70;;
65533;SDS011;53640;55.838;37.184;2022-10-17T03:59:11;5.35;;;3.30;;
65533;SDS011;53640;55.838;37.184;2022-10-17T04:01:39;4.65;;;3.05;;
65533;SDS011;53640;55.838;37.184;2022-10-17T04:04:07;5.20;;;2.92;;
65533;SDS011;53640;55.838;37.184;2022-10-17T04:06:35;6.47;;;3.30;;
65533;SDS011;53640;55.838;37.184;2022-10-17T04:09:03;7.65;;;3.55;;
65533;SDS011;53640;55.838;37.184;2022-10-17T04:11:42;5.50;;;2.92;;
65533;SDS011;53640;55.838;37.184;2022-10-17T04:14:09;4.07;;;3.15;;
65533;SDS011;53640;55.838;37.184;2022-10-17T04:16:38;7.50;;;3.47;;
65533;SDS011;53640;55.838;37.184;2022-10-17T04:19:12;8.93;;;3.50;;
65533;SDS011;53640;55.838;37.184;2022-10-17T04:21:46;5.55;;;3.20;;
65533;SDS011;53640;55.838;37.184;2022-10-17T04:24:13;7.00;;;3.78;;
65533;SDS011;53640;55.838;37.184;2022-10-17T04:26:59;5.85;;;3.83;;
65533;SDS011;53640;55.838;37.184;2022-10-17T04:29:29;5.63;;;3.42;;
65533;SDS011;53640;55.838;37.184;2022-10-17T04:32:10;7.97;;;3.90;;
65533;SDS011;53640;55.838;37.184;2022-10-17T04:34:43;8.43;;;3.75;;
65533;SDS011;53640;55.838;37.184;2022-10-17T04:37:10;6.15;;;3.00;;
65533;SDS011;53640;55.838;37.184;2022-10-17T04:39:36;5.07;;;3.13;;
65533;SDS011;53640;55.838;37.184;2022-10-17T04:42:08;7.22;;;3.40;;
65533;SDS011;53640;55.838;37.184;2022-10-17T04:44:35;5.25;;;3.70;;
65533;SDS011;53640;55.838;37.184;2022-10-17T04:47:02;6.60;;;3.53;;
65533;SDS011;53640;55.838;37.184;2022-10-17T04:49:29;7.97;;;3.13;;
65533;SDS011;53640;55.838;37.184;2022-10-17T04:54:37;7.32;;;3.20;;
65533;SDS011;53640;55.838;37.184;2022-10-17T04:57:10;7.05;;;3.08;;
65533;SDS011;53640;55.838;37.184;2022-10-17T04:59:41;4.93;;;3.20;;
65533;SDS011;53640;55.838;37.184;2022-10-17T05:02:45;6.25;;;3.38;;
65533;SDS011;53640;55.838;37.184;2022-10-17T05:05:12;7.78;;;3.55;;
65533;SDS011;53640;55.838;37.184;2022-10-17T05:07:39;8.65;;;3.40;;
65533;SDS011;53640;55.838;37.184;2022-10-17T05:10:16;9.07;;;4.05;;
65533;SDS011;53640;55.838;37.184;2022-10-17T05:12:46;6.22;;;3.45;;
65533;SDS011;53640;55.838;37.184;2022-10-17T05:15:15;7.18;;;3.03;;
65533;SDS011;53640;55.838;37.184;2022-10-17T05:17:55;6.60;;;3.13;;
65533;SDS011;53640;55.838;37.184;2022-10-17T05:20:23;9.38;;;3.30;;
65533;SDS011;53640;55.838;37.184;2022-10-17T05:23:08;6.15;;;3.35;;
65533;SDS011;53640;55.838;37.184;2022-10-17T05:25:58;5.18;;;2.95;;
65533;SDS011;53640;55.838;37.184;2022-10-17T05:28:46;5.47;;;3.10;;
65533;SDS011;53640;55.838;37.184;2022-10-17T05:31:34;6.70;;;3.17;;
65533;SDS011;53640;55.838;37.184;2022-10-17T05:34:28;5.60;;;3.10;;
65533;SDS011;53640;55.838;37.184;2022-10-17T05:37:07;9.52;;;3.80;;
65533;SDS011;53640;55.838;37.184;2022-10-17T05:39:40;5.38;;;3.15;;
65533;SDS011;53640;55.838;37.184;2022-10-17T05:42:10;6.22;;;3.45;;
65533;SDS011;53640;55.838;37.184;2022-10-17T05:47:31;9.25;;;3.60;;
65533;SDS011;53640;55.838;37.184;2022-10-17T05:49:58;5.80;;;3.60;;
65533;SDS011;53640;55.838;37.184;2022-10-17T05:52:43;4.93;;;3.30;;
65533;SDS011;53640;55.838;37.184;2022-10-17T05:55:14;6.17;;;3.37;;
65533;SDS011;53640;55.838;37.184;2022-10-17T05:58:07;9.02;;;3.47;;
65533;SDS011;53640;55.838;37.184;2022-10-17T06:01:05;11.38;;;3.40;;
65533;SDS011;53640;55.838;37.184;2022-10-17T06:03:53;7.45;;;3.65;;
65533;SDS011;53640;55.838;37.184;2022-10-17T06:06:24;6.93;;;3.50;;
65533;SDS011;53640;55.838;37.184;2022-10-17T06:09:00;13.73;;;3.78;;
65533;SDS011;53640;55.838;37.184;2022-10-17T06:11:48;8.00;;;3.53;;
65533;SDS011;53640;55.838;37.184;2022-10-17T06:14:34;9.23;;;3.95;;
65533;SDS011;53640;55.838;37.184;2022-10-17T06:17:05;11.93;;;4.93;;
65533;SDS011;53640;55.838;37.184;2022-10-17T06:19:37;8.10;;;4.93;;
65533;SDS011;53640;55.838;37.184;2022-10-17T06:22:07;6.93;;;3.85;;
65533;SDS011;53640;55.838;37.184;2022-10-17T06:24:34;10.77;;;4.30;;
65533;SDS011;53640;55.838;37.184;2022-10-17T06:27:03;4.90;;;2.95;;
65533;SDS011;53640;55.838;37.184;2022-10-17T06:29:30;8.70;;;3.47;;
65533;SDS011;53640;55.838;37.184;2022-10-17T06:31:56;5.90;;;3.72;;
65533;SDS011;53640;55.838;37.184;2022-10-17T06:34:23;6.78;;;3.65;;
65533;SDS011;53640;55.838;37.184;2022-10-17T06:36:52;11.15;;;4.18;;
65533;SDS011;53640;55.838;37.184;2022-10-17T06:39:19;9.30;;;3.65;;
65533;SDS011;53640;55.838;37.184;2022-10-17T06:41:56;7.78;;;3.63;;
65533;SDS011;53640;55.838;37.184;2022-10-17T06:44:38;5.28;;;3.17;;
65533;SDS011;53640;55.838;37.184;2022-10-17T06:47:26;6.97;;;3.92;;
65533;SDS011;53640;55.838;37.184;2022-10-17T06:49:56;7.20;;;3.72;;
65533;SDS011;53640;55.838;37.184;2022-10-17T06:52:33;5.63;;;3.25;;
65533;SDS011;53640;55.838;37.184;2022-10-17T06:55:18;8.32;;;4.03;;
65533;SDS011;53640;55.838;37.184;2022-10-17T06:57:56;7.40;;;4.00;;
65533;SDS011;53640;55.838;37.184;2022-10-17T07:00:43;9.45;;;4.03;;
65533;SDS011;53640;55.838;37.184;2022-10-17T07:03:11;6.50;;;3.50;;
65533;SDS011;53640;55.838;37.184;2022-10-17T07:05:37;9.07;;;4.63;;
65533;SDS011;53640;55.838;37.184;2022-10-17T07:08:04;6.03;;;3.47;;
65533;SDS011;53640;55.838;37.184;2022-10-17T07:10:30;7.28;;;3.55;;
65533;SDS011;53640;55.838;37.184;2022-10-17T07:13:03;7.22;;;3.70;;
65533;SDS011;53640;55.838;37.184;2022-10-17T07:15:32;5.68;;;3.65;;
65533;SDS011;53640;55.838;37.184;2022-10-17T07:17:59;9.60;;;4.22;;
65533;SDS011;53640;55.838;37.184;2022-10-17T07:20:25;8.27;;;4.22;;
65533;SDS011;53640;55.838;37.184;2022-10-17T07:22:51;5.22;;;3.40;;
65533;SDS011;53640;55.838;37.184;2022-10-17T07:25:18;7.80;;;3.55;;
65533;SDS011;53640;55.838;37.184;2022-10-17T07:27:50;5.07;;;3.33;;
65533;SDS011;53640;55.838;37.184;2022-10-17T07:30:17;8.85;;;3.80;;
65533;SDS011;53640;55.838;37.184;2022-10-17T07:33:07;9.35;;;4.13;;
65533;SDS011;53640;55.838;37.184;2022-10-17T07:35:34;10.57;;;3.67;;
65533;SDS011;53640;55.838;37.184;2022-10-17T07:38:13;9.73;;;4.40;;
65533;SDS011;53640;55.838;37.184;2022-10-17T07:40:52;7.80;;;4.18;;
65533;SDS011;53640;55.838;37.184;2022-10-17T07:43:23;6.60;;;4.28;;
65533;SDS011;53640;55.838;37.184;2022-10-17T07:45:53;10.88;;;3.90;;
65533;SDS011;53640;55.838;37.184;2022-10-17T07:48:23;6.80;;;3.65;;
65533;SDS011;53640;55.838;37.184;2022-10-17T07:50:50;11.75;;;3.70;;
65533;SDS011;53640;55.838;37.184;2022-10-17T07:53:23;7.60;;;4.68;;
65533;SDS011;53640;55.838;37.184;2022-10-17T07:55:58;5.43;;;3.83;;
65533;SDS011;53640;55.838;37.184;2022-10-17T07:58:52;6.38;;;3.58;;
65533;SDS011;53640;55.838;37.184;2022-10-17T08:01:20;5.72;;;3.65;;
65533;SDS011;53640;55.838;37.184;2022-10-17T08:04:12;7.97;;;3.90;;
65533;SDS011;53640;55.838;37.184;2022-10-17T08:06:39;9.32;;;4.38;;
65533;SDS011;53640;55.838;37.184;2022-10-17T08:09:05;6.65;;;3.65;;
65533;SDS011;53640;55.838;37.184;2022-10-17T08:11:32;6.78;;;4.10;;
65533;SDS011;53640;55.838;37.184;2022-10-17T08:13:59;8.05;;;4.30;;
65533;SDS011;53640;55.838;37.184;2022-10-17T08:16:26;7.07;;;4.30;;
65533;SDS011;53640;55.838;37.184;2022-10-17T08:18:52;7.95;;;3.95;;
65533;SDS011;53640;55.838;37.184;2022-10-17T08:21:18;8.18;;;4.43;;
65533;SDS011;53640;55.838;37.184;2022-10-17T08:23:53;11.38;;;4.75;;
65533;SDS011;53640;55.838;37.184;2022-10-17T08:26:28;7.10;;;4.35;;
65533;SDS011;53640;55.838;37.184;2022-10-17T08:28:55;8.95;;;3.78;;
65533;SDS011;53640;55.838;37.184;2022-10-17T08:31:22;8.85;;;4.30;;
65533;SDS011;53640;55.838;37.184;2022-10-17T08:33:48;9.32;;;4.95;;
65533;SDS011;53640;55.838;37.184;2022-10-17T08:36:24;6.22;;;4.13;;
65533;SDS011;53640;55.838;37.184;2022-10-17T08:38:50;8.90;;;4.20;;
65533;SDS011;53640;55.838;37.184;2022-10-17T08:47:38;11.55;;;4.60;;
65533;SDS011;53640;55.838;37.184;2022-10-17T08:51:17;6.03;;;3.85;;
65533;SDS011;53640;55.838;37.184;2022-10-17T08:54:05;11.25;;;4.35;;
65533;SDS011;53640;55.838;37.184;2022-10-17T08:56:42;7.05;;;4.60;;
65533;SDS011;53640;55.838;37.184;2022-10-17T08:59:25;7.22;;;4.50;;
65533;SDS011;53640;55.838;37.184;2022-10-17T09:02:11;11.85;;;5.00;;
65533;SDS011;53640;55.838;37.184;2022-10-17T09:07:48;9.75;;;4.95;;
65533;SDS011;53640;55.838;37.184;2022-10-17T09:10:49;8.93;;;5.57;;
65533;SDS011;53640;55.838;37.184;2022-10-17T09:30:05;8.55;;;4.85;;
65533;SDS011;53640;55.838;37.184;2022-10-17T09:32:44;8.45;;;5.15;;
65533;SDS011;53640;55.838;37.184;2022-10-17T09:35:12;8.57;;;4.68;;
65533;SDS011;53640;55.838;37.184;2022-10-17T09:37:40;5.93;;;4.95;;
65533;SDS011;53640;55.838;37.184;2022-10-17T09:40:26;6.82;;;4.57;;
65533;SDS011;53640;55.838;37.184;2022-10-17T09:43:01;9.80;;;5.20;;
65533;SDS011;53640;55.838;37.184;2022-10-17T09:45:31;10.48;;;4.80;;
65533;SDS011;53640;55.838;37.184;2022-10-17T09:50:35;12.45;;;6.43;;
65533;SDS011;53640;55.838;37.184;2022-10-17T09:53:17;8.80;;;4.90;;
65533;SDS011;53640;55.838;37.184;2022-10-17T09:55:55;9.75;;;5.78;;
65533;SDS011;53640;55.838;37.184;2022-10-17T09:58:38;7.20;;;4.72;;
65533;SDS011;53640;55.838;37.184;2022-10-17T10:01:25;7.93;;;4.78;;
65533;SDS011;53640;55.838;37.184;2022-10-17T10:04:09;9.98;;;5.97;;
65533;SDS011;53640;55.838;37.184;2022-10-17T10:06:40;10.95;;;5.70;;
65533;SDS011;53640;55.838;37.184;2022-10-17T10:09:27;8.95;;;5.30;;
65533;SDS011;53640;55.838;37.184;2022-10-17T10:11:56;10.65;;;5.40;;
65533;SDS011;53640;55.838;37.184;2022-10-17T10:14:30;18.63;;;9.40;;
65533;SDS011;53640;55.838;37.184;2022-10-17T10:17:00;24.33;;;8.95;;
65533;SDS011;53640;55.838;37.184;2022-10-17T10:19:29;25.65;;;10.30;;
65533;SDS011;53640;55.838;37.184;2022-10-17T10:21:58;13.68;;;6.63;;
65533;SDS011;53640;55.838;37.184;2022-10-17T10:24:26;8.73;;;5.70;;
65533;SDS011;53640;55.838;37.184;2022-10-17T10:26:53;10.20;;;5.43;;
65533;SDS011;53640;55.838;37.184;2022-10-17T10:29:30;7.30;;;5.10;;
65533;SDS011;53640;55.838;37.184;2022-10-17T10:37:22;7.18;;;4.90;;
65533;SDS011;53640;55.838;37.184;2022-10-17T10:45:20;12.00;;;6.80;;
65533;SDS011;53640;55.838;37.184;2022-10-17T10:47:59;10.23;;;5.72;;
65533;SDS011;53640;55.838;37.184;2022-10-17T10:55:57;8.88;;;5.22;;
65533;SDS011;53640;55.838;37.184;2022-10-17T11:07:26;11.93;;;7.28;;
65533;SDS011;53640;55.838;37.184;2022-10-17T11:10:11;10.18;;;5.85;;
65533;SDS011;53640;55.838;37.184;2022-10-17T11:13:31;8.25;;;5.00;;
65533;SDS011;53640;55.838;37.184;2022-10-17T11:16:13;10.10;;;5.22;;
65533;SDS011;53640;55.838;37.184;2022-10-17T11:18:50;13.00;;;5.75;;
65533;SDS011;53640;55.838;37.184;2022-10-17T11:21:33;9.30;;;5.85;;
65533;SDS011;53640;55.838;37.184;2022-10-17T11:26:44;9.80;;;5.47;;
65533;SDS011;53640;55.838;37.184;2022-10-17T11:29:15;12.88;;;6.82;;
65533;SDS011;53640;55.838;37.184;2022-10-17T11:31:46;13.38;;;7.07;;
65533;SDS011;53640;55.838;37.184;2022-10-17T11:34:19;11.50;;;6.88;;
65533;SDS011;53640;55.838;37.184;2022-10-17T11:37:08;9.82;;;6.63;;
65533;SDS011;53640;55.838;37.184;2022-10-17T11:40:24;11.20;;;6.70;;
65533;SDS011;53640;55.838;37.184;2022-10-17T11:43:10;11.68;;;7.00;;
65533;SDS011;53640;55.838;37.184;2022-10-17T11:45:44;12.75;;;6.57;;
65533;SDS011;53640;55.838;37.184;2022-10-17T11:48:30;10.52;;;7.15;;
65533;SDS011;53640;55.838;37.184;2022-10-17T11:51:10;10.68;;;6.28;;
65533;SDS011;53640;55.838;37.184;2022-10-17T11:54:03;13.20;;;6.22;;
65533;SDS011;53640;55.838;37.184;2022-10-17T12:00:56;10.25;;;6.10;;
65533;SDS011;53640;55.838;37.184;2022-10-17T12:03:57;11.55;;;5.95;;
65533;SDS011;53640;55.838;37.184;2022-10-17T12:07:07;13.02;;;6.85;;
65533;SDS011;53640;55.838;37.184;2022-10-17T12:12:31;10.10;;;6.45;;
65533;SDS011;53640;55.838;37.184;2022-10-17T12:19:34;12.30;;;7.05;;
65533;SDS011;53640;55.838;37.184;2022-10-17T12:22:16;13.13;;;7.20;;
65533;SDS011;53640;55.838;37.184;2022-10-17T12:24:53;14.10;;;7.68;;
65533;SDS011;53640;55.838;37.184;2022-10-17T12:33:27;13.00;;;7.03;;
65533;SDS011;53640;55.838;37.184;2022-10-17T12:38:45;9.57;;;6.13;;
65533;SDS011;53640;55.838;37.184;2022-10-17T12:41:16;12.15;;;7.25;;
65533;SDS011;53640;55.838;37.184;2022-10-17T12:55:09;15.65;;;7.90;;
65533;SDS011;53640;55.838;37.184;2022-10-17T13:00:34;12.48;;;7.28;;
65533;SDS011;53640;55.838;37.184;2022-10-17T13:03:17;12.85;;;7.82;;
65533;SDS011;53640;55.838;37.184;2022-10-17T13:05:49;14.93;;;7.88;;
65533;SDS011;53640;55.838;37.184;2022-10-17T13:08:19;11.05;;;7.63;;
65533;SDS011;53640;55.838;37.184;2022-10-17T13:10:50;12.65;;;7.82;;
65533;SDS011;53640;55.838;37.184;2022-10-17T13:16:07;17.90;;;9.05;;
65533;SDS011;53640;55.838;37.184;2022-10-17T13:18:34;15.63;;;8.38;;
65533;SDS011;53640;55.838;37.184;2022-10-17T13:21:02;13.98;;;8.23;;
65533;SDS011;53640;55.838;37.184;2022-10-17T13:23:33;20.05;;;9.10;;
65533;SDS011;53640;55.838;37.184;2022-10-17T13:26:12;16.63;;;8.85;;
65533;SDS011;53640;55.838;37.184;2022-10-17T13:33:56;10.93;;;7.20;;
65533;SDS011;53640;55.838;37.184;2022-10-17T13:36:24;13.80;;;7.75;;
65533;SDS011;53640;55.838;37.184;2022-10-17T13:38:51;12.82;;;7.60;;
65533;SDS011;53640;55.838;37.184;2022-10-17T13:41:18;16.38;;;7.72;;
65533;SDS011;53640;55.838;37.184;2022-10-17T13:43:52;15.68;;;8.85;;
65533;SDS011;53640;55.838;37.184;2022-10-17T13:46:23;14.60;;;9.07;;
65533;SDS011;53640;55.838;37.184;2022-10-17T13:48:51;16.23;;;8.55;;
65533;SDS011;53640;55.838;37.184;2022-10-17T13:51:18;15.50;;;8.68;;
65533;SDS011;53640;55.838;37.184;2022-10-17T13:53:45;14.13;;;8.45;;
65533;SDS011;53640;55.838;37.184;2022-10-17T13:58:54;19.48;;;9.68;;
65533;SDS011;53640;55.838;37.184;2022-10-17T14:01:23;15.60;;;9.23;;
65533;SDS011;53640;55.838;37.184;2022-10-17T14:03:51;18.77;;;8.85;;
65533;SDS011;53640;55.838;37.184;2022-10-17T14:08:46;15.77;;;9.23;;
65533;SDS011;53640;55.838;37.184;2022-10-17T14:11:37;12.85;;;8.00;;
65533;SDS011;53640;55.838;37.184;2022-10-17T14:14:18;17.02;;;8.63;;
65533;SDS011;53640;55.838;37.184;2022-10-17T14:16:47;14.30;;;8.52;;
65533;SDS011;53640;55.838;37.184;2022-10-17T14:19:22;19.15;;;7.85;;
65533;SDS011;53640;55.838;37.184;2022-10-17T14:24:48;13.27;;;7.43;;
65533;SDS011;53640;55.838;37.184;2022-10-17T14:27:30;13.73;;;8.35;;
65533;SDS011;53640;55.838;37.184;2022-10-17T14:30:03;15.05;;;8.85;;
65533;SDS011;53640;55.838;37.184;2022-10-17T14:32:34;19.25;;;9.02;;
65533;SDS011;53640;55.838;37.184;2022-10-17T14:35:03;14.70;;;8.18;;
65533;SDS011;53640;55.838;37.184;2022-10-17T14:37:42;14.93;;;8.18;;
65533;SDS011;53640;55.838;37.184;2022-10-17T14:40:15;17.90;;;9.35;;
65533;SDS011;53640;55.838;37.184;2022-10-17T14:42:48;18.15;;;9.32;;
65533;SDS011;53640;55.838;37.184;2022-10-17T14:45:35;17.42;;;9.30;;
65533;SDS011;53640;55.838;37.184;2022-10-17T14:48:17;19.20;;;9.23;;
65533;SDS011;53640;55.838;37.184;2022-10-17T14:54:16;16.63;;;9.23;;
65533;SDS011;53640;55.838;37.184;2022-10-17T15:03:59;16.90;;;8.13;;
65533;SDS011;53640;55.838;37.184;2022-10-17T15:06:41;17.67;;;8.30;;
65533;SDS011;53640;55.838;37.184;2022-10-17T15:09:12;15.10;;;7.90;;
65533;SDS011;53640;55.838;37.184;2022-10-17T15:11:42;14.52;;;7.75;;
65533;SDS011;53640;55.838;37.184;2022-10-17T15:14:11;15.55;;;8.05;;
65533;SDS011;53640;55.838;37.184;2022-10-17T15:16:48;11.85;;;7.15;;
65533;SDS011;53640;55.838;37.184;2022-10-17T15:22:44;14.13;;;8.20;;
65533;SDS011;53640;55.838;37.184;2022-10-17T15:31:13;15.38;;;7.93;;
65533;SDS011;53640;55.838;37.184;2022-10-17T15:33:42;15.95;;;8.32;;
65533;SDS011;53640;55.838;37.184;2022-10-17T15:36:22;26.30;;;10.23;;
65533;SDS011;53640;55.838;37.184;2022-10-17T15:39:20;15.80;;;8.52;;
65533;SDS011;53640;55.838;37.184;2022-10-17T15:41:47;12.15;;;8.05;;
65533;SDS011;53640;55.838;37.184;2022-10-17T15:44:13;13.27;;;6.95;;
65533;SDS011;53640;55.838;37.184;2022-10-17T15:46:40;17.23;;;9.02;;
65533;SDS011;53640;55.838;37.184;2022-10-17T15:49:17;17.27;;;8.63;;
65533;SDS011;53640;55.838;37.184;2022-10-17T15:51:44;21.90;;;10.07;;
65533;SDS011;53640;55.838;37.184;2022-10-17T15:54:11;17.88;;;8.82;;
65533;SDS011;53640;55.838;37.184;2022-10-17T15:56:38;18.98;;;9.20;;
65533;SDS011;53640;55.838;37.184;2022-10-17T15:59:13;17.02;;;8.15;;
65533;SDS011;53640;55.838;37.184;2022-10-17T16:02:00;11.80;;;7.10;;
65533;SDS011;53640;55.838;37.184;2022-10-17T16:04:28;15.35;;;7.30;;
65533;SDS011;53640;55.838;37.184;2022-10-17T16:06:55;15.68;;;8.63;;
65533;SDS011;53640;55.838;37.184;2022-10-17T16:13:03;15.43;;;8.35;;
65533;SDS011;53640;55.838;37.184;2022-10-17T16:15:30;11.77;;;7.75;;
65533;SDS011;53640;55.838;37.184;2022-10-17T16:18:02;14.43;;;7.88;;
65533;SDS011;53640;55.838;37.184;2022-10-17T16:20:28;11.93;;;7.32;;
65533;SDS011;53640;55.838;37.184;2022-10-17T16:23:02;15.05;;;7.97;;
65533;SDS011;53640;55.838;37.184;2022-10-17T16:25:47;14.25;;;7.20;;
65533;SDS011;53640;55.838;37.184;2022-10-17T16:28:16;12.73;;;6.85;;
65533;SDS011;53640;55.838;37.184;2022-10-17T16:30:43;16.60;;;7.68;;
65533;SDS011;53640;55.838;37.184;2022-10-17T16:33:11;13.45;;;7.65;;
65533;SDS011;53640;55.838;37.184;2022-10-17T16:35:51;14.02;;;6.97;;
65533;SDS011;53640;55.838;37.184;2022-10-17T16:38:18;16.80;;;7.80;;
65533;SDS011;53640;55.838;37.184;2022-10-17T16:40:47;13.73;;;7.60;;
65533;SDS011;53640;55.838;37.184;2022-10-17T16:43:18;14.68;;;8.13;;
65533;SDS011;53640;55.838;37.184;2022-10-17T16:45:45;14.17;;;7.63;;
65533;SDS011;53640;55.838;37.184;2022-10-17T16:49:28;20.00;;;8.27;;
65533;SDS011;53640;55.838;37.184;2022-10-17T16:53:02;18.58;;;8.43;;
65533;SDS011;53640;55.838;37.184;2022-10-17T16:55:29;17.70;;;8.60;;
65533;SDS011;53640;55.838;37.184;2022-10-17T16:57:58;22.23;;;8.27;;
65533;SDS011;53640;55.838;37.184;2022-10-17T17:00:26;12.95;;;8.18;;
65533;SDS011;53640;55.838;37.184;2022-10-17T17:02:52;10.90;;;6.75;;
65533;SDS011;53640;55.838;37.184;2022-10-17T17:05:19;15.05;;;8.13;;
65533;SDS011;53640;55.838;37.184;2022-10-17T17:07:51;14.70;;;7.60;;
65533;SDS011;53640;55.838;37.184;2022-10-17T17:10:32;14.95;;;7.90;;
65533;SDS011;53640;55.838;37.184;2022-10-17T17:12:58;15.68;;;8.30;;
65533;SDS011;53640;55.838;37.184;2022-10-17T17:16:13;14.68;;;7.32;;
65533;SDS011;53640;55.838;37.184;2022-10-17T17:18:52;17.23;;;8.85;;
65533;SDS011;53640;55.838;37.184;2022-10-17T17:21:22;13.57;;;7.88;;
65533;SDS011;53640;55.838;37.184;2022-10-17T17:23:57;13.70;;;8.07;;
65533;SDS011;53640;55.838;37.184;2022-10-17T17:26:29;12.68;;;7.72;;
65533;SDS011;53640;55.838;37.184;2022-10-17T17:28:58;15.30;;;7.65;;
65533;SDS011;53640;55.838;37.184;2022-10-17T17:31:26;15.50;;;9.02;;
65533;SDS011;53640;55.838;37.184;2022-10-17T17:34:03;16.60;;;8.30;;
65533;SDS011;53640;55.838;37.184;2022-10-17T17:36:31;15.05;;;8.00;;
65533;SDS011;53640;55.838;37.184;2022-10-17T17:39:15;13.52;;;7.55;;
65533;SDS011;53640;55.838;37.184;2022-10-17T17:41:51;17.10;;;8.07;;
65533;SDS011;53640;55.838;37.184;2022-10-17T17:44:18;12.15;;;7.28;;
65533;SDS011;53640;55.838;37.184;2022-10-17T17:46:44;13.48;;;8.10;;
65533;SDS011;53640;55.838;37.184;2022-10-17T17:49:14;12.77;;;7.88;;
65533;SDS011;53640;55.838;37.184;2022-10-17T17:51:40;13.90;;;7.65;;
65533;SDS011;53640;55.838;37.184;2022-10-17T17:54:42;13.27;;;7.57;;
65533;SDS011;53640;55.838;37.184;2022-10-17T17:57:59;14.57;;;7.72;;
65533;SDS011;53640;55.838;37.184;2022-10-17T18:00:28;16.10;;;7.70;;
65533;SDS011;53640;55.838;37.184;2022-10-17T18:02:55;11.18;;;7.53;;
65533;SDS011;53640;55.838;37.184;2022-10-17T18:05:22;12.82;;;7.93;;